Time;durP1;ratioP1;P1;durP2;ratioP2;P2;SDS_P1;SDS_P2;PMS_P1;PMS_P2;Temp;Humidity;BMP_temperature;BMP_pressure;BME280_temperature;BME280_humidity;BME280_pressure;Samples;Min_cycle;Max_cycle;Signal;HPM_P1;HPM_P2
2022/10/15 00:01:27;;;;;;;39.97;6.13;;;;;;;;;;5012462;28;20060;-58
2022/10/15 00:03:54;;;;;;;35.75;5.50;;;;;;;;;;5011581;28;20036;-59
2022/10/15 00:06:21;;;;;;;37.90;5.93;;;;;;;;;;5009711;28;20029;-56
2022/10/15 00:08:49;;;;;;;33.03;5.93;;;;;;;;;;5012099;28;20025;-58
2022/10/15 00:11:21;;;;;;;33.22;6.28;;;;;;;;;;5009541;28;20042;-58
2022/10/15 00:13:48;;;;;;;33.97;5.43;;;;;;;;;;5012219;28;20025;-58
2022/10/15 00:16:17;;;;;;;34.30;5.80;;;;;;;;;;5007573;28;20292;-60
2022/10/15 00:18:45;;;;;;;40.85;6.18;;;;;;;;;;5011851;28;20033;-59
2022/10/15 00:21:13;;;;;;;29.98;5.22;;;;;;;;;;5011267;28;20029;-55
2022/10/15 00:23:41;;;;;;;27.70;5.47;;;;;;;;;;5011209;28;20403;-59
2022/10/15 00:26:10;;;;;;;23.27;5.45;;;;;;;;;;5011132;28;20041;-59
2022/10/15 00:28:37;;;;;;;31.52;5.18;;;;;;;;;;4993376;28;20048;-59
2022/10/15 00:31:06;;;;;;;34.05;4.95;;;;;;;;;;5010364;28;20084;-60
2022/10/15 00:33:33;;;;;;;38.03;5.90;;;;;;;;;;5011165;28;20033;-59
2022/10/15 00:36:06;;;;;;;29.02;5.47;;;;;;;;;;5011053;28;20034;-60
2022/10/15 00:38:33;;;;;;;27.20;4.82;;;;;;;;;;4993574;28;20125;-59
2022/10/15 00:41:00;;;;;;;27.92;5.60;;;;;;;;;;4980945;28;20167;-58
2022/10/15 00:43:37;;;;;;;40.55;6.00;;;;;;;;;;5003185;28;20034;-59
2022/10/15 00:46:04;;;;;;;40.60;5.88;;;;;;;;;;5011936;28;20473;-58
2022/10/15 00:48:31;;;;;;;23.35;5.05;;;;;;;;;;5012223;28;20424;-59
2022/10/15 00:50:59;;;;;;;36.80;6.18;;;;;;;;;;5011071;28;20034;-61
2022/10/15 00:53:26;;;;;;;33.60;5.57;;;;;;;;;;5010632;28;20132;-60
2022/10/15 00:55:54;;;;;;;34.88;5.32;;;;;;;;;;5010010;28;20030;-60
2022/10/15 00:58:26;;;;;;;25.80;5.57;;;;;;;;;;5010714;28;20036;-60
2022/10/15 01:00:56;;;;;;;30.65;5.82;;;;;;;;;;5007961;28;20036;-62
2022/10/15 01:03:24;;;;;;;37.33;5.95;;;;;;;;;;5009922;28;20115;-62
2022/10/15 01:05:52;;;;;;;31.70;5.32;;;;;;;;;;5010270;28;20034;-61
2022/10/15 01:08:19;;;;;;;30.50;6.18;;;;;;;;;;5007981;28;20034;-61
2022/10/15 01:10:56;;;;;;;28.23;5.47;;;;;;;;;;5007947;28;20025;-61
2022/10/15 01:13:23;;;;;;;31.92;5.47;;;;;;;;;;5010376;28;20488;-61
2022/10/15 01:15:54;;;;;;;36.00;6.00;;;;;;;;;;5010448;28;20385;-61
2022/10/15 01:18:42;;;;;;;34.90;5.72;;;;;;;;;;5007399;28;20038;-61
2022/10/15 01:21:26;;;;;;;33.17;5.60;;;;;;;;;;5007997;28;20033;-61
2022/10/15 01:24:00;;;;;;;36.90;6.15;;;;;;;;;;4992421;28;20037;-60
2022/10/15 01:26:28;;;;;;;30.05;5.15;;;;;;;;;;5009341;28;20046;-61
2022/10/15 01:28:59;;;;;;;31.10;5.35;;;;;;;;;;5010928;28;20037;-62
2022/10/15 01:31:39;;;;;;;21.67;5.03;;;;;;;;;;5008254;28;20065;-62
2022/10/15 01:34:13;;;;;;;24.73;5.13;;;;;;;;;;5007330;28;20026;-61
2022/10/15 01:36:52;;;;;;;32.05;6.47;;;;;;;;;;5009386;28;20930;-62
2022/10/15 01:39:41;;;;;;;25.00;5.57;;;;;;;;;;5004996;28;20054;-60
2022/10/15 01:42:22;;;;;;;33.28;6.65;;;;;;;;;;5008832;28;20095;-63
2022/10/15 01:44:55;;;;;;;29.25;5.10;;;;;;;;;;5008651;28;20073;-61
2022/10/15 01:47:31;;;;;;;36.58;5.50;;;;;;;;;;5010242;28;20038;-61
2022/10/15 01:50:01;;;;;;;26.40;4.95;;;;;;;;;;5010803;28;20033;-59
2022/10/15 01:52:31;;;;;;;25.98;4.93;;;;;;;;;;5010798;28;20106;-60
2022/10/15 01:55:00;;;;;;;26.50;4.95;;;;;;;;;;5010536;28;20369;-61
2022/10/15 01:57:29;;;;;;;22.48;5.18;;;;;;;;;;5010789;28;20480;-59
2022/10/15 01:59:57;;;;;;;21.33;4.13;;;;;;;;;;5009829;28;20037;-61
2022/10/15 02:02:26;;;;;;;22.35;4.63;;;;;;;;;;5009838;28;20095;-61
2022/10/15 02:04:53;;;;;;;25.10;4.45;;;;;;;;;;5009923;28;20488;-59
2022/10/15 02:07:27;;;;;;;23.25;4.75;;;;;;;;;;4992214;28;20076;-61
2022/10/15 02:09:58;;;;;;;19.65;4.18;;;;;;;;;;5009864;28;20100;-61
2022/10/15 02:12:31;;;;;;;21.73;3.97;;;;;;;;;;5010887;28;20057;-60
2022/10/15 02:15:01;;;;;;;20.08;3.70;;;;;;;;;;5012144;28;20040;-61
2022/10/15 02:17:34;;;;;;;22.40;4.63;;;;;;;;;;5014277;28;20033;-60
2022/10/15 02:20:09;;;;;;;26.85;4.25;;;;;;;;;;5013853;28;20038;-60
2022/10/15 02:22:56;;;;;;;27.33;4.65;;;;;;;;;;5014236;28;20030;-61
2022/10/15 02:25:25;;;;;;;17.25;4.22;;;;;;;;;;5013548;28;20396;-60
2022/10/15 02:27:57;;;;;;;20.10;4.43;;;;;;;;;;5013781;28;20026;-60
2022/10/15 02:30:24;;;;;;;22.57;4.57;;;;;;;;;;5013965;28;20030;-60
2022/10/15 02:32:55;;;;;;;19.75;4.00;;;;;;;;;;5013958;28;20034;-58
2022/10/15 02:35:26;;;;;;;18.65;3.92;;;;;;;;;;5013616;28;20034;-59
2022/10/15 02:37:55;;;;;;;18.33;3.77;;;;;;;;;;5008814;28;20022;-57
2022/10/15 02:40:23;;;;;;;16.05;3.92;;;;;;;;;;5003228;28;20029;-60
2022/10/15 02:42:53;;;;;;;17.08;3.63;;;;;;;;;;5009438;28;20062;-58
2022/10/15 02:45:20;;;;;;;16.45;3.58;;;;;;;;;;5005016;28;20053;-57
2022/10/15 02:47:47;;;;;;;16.52;3.53;;;;;;;;;;5005146;28;20026;-58
2022/10/15 02:50:14;;;;;;;27.95;3.92;;;;;;;;;;4994370;28;20438;-52
2022/10/15 02:52:41;;;;;;;22.00;4.00;;;;;;;;;;5007005;28;20040;-54
2022/10/15 02:55:09;;;;;;;15.95;3.83;;;;;;;;;;5003381;28;20044;-57
2022/10/15 02:57:37;;;;;;;18.73;4.38;;;;;;;;;;5003337;28;20128;-58
2022/10/15 03:00:06;;;;;;;23.55;4.03;;;;;;;;;;5003641;28;20160;-59
2022/10/15 03:02:36;;;;;;;24.97;4.30;;;;;;;;;;5002669;28;20116;-55
2022/10/15 03:05:03;;;;;;;24.70;4.28;;;;;;;;;;4985209;28;20410;-60
2022/10/15 03:07:30;;;;;;;22.30;3.83;;;;;;;;;;5003407;28;20480;-56
2022/10/15 03:09:58;;;;;;;17.88;3.67;;;;;;;;;;5001469;28;20029;-52
2022/10/15 03:12:25;;;;;;;16.02;3.72;;;;;;;;;;5001639;28;20030;-59
2022/10/15 03:14:53;;;;;;;22.08;3.75;;;;;;;;;;5001387;28;20542;-59
2022/10/15 03:17:21;;;;;;;18.60;4.28;;;;;;;;;;4999847;28;20101;-58
2022/10/15 03:19:47;;;;;;;20.20;4.28;;;;;;;;;;5011812;28;20373;-58
2022/10/15 03:22:15;;;;;;;21.35;3.88;;;;;;;;;;4997236;28;20452;-53
2022/10/15 03:24:41;;;;;;;17.98;3.70;;;;;;;;;;4994109;28;20475;-54
2022/10/15 03:27:08;;;;;;;10.07;3.35;;;;;;;;;;4975815;28;20027;-55
2022/10/15 03:29:35;;;;;;;18.58;3.78;;;;;;;;;;4994253;28;20110;-56
2022/10/15 03:32:02;;;;;;;15.18;3.55;;;;;;;;;;4994136;28;20074;-56
2022/10/15 03:34:29;;;;;;;16.10;3.15;;;;;;;;;;4994145;28;20054;-57
2022/10/15 03:36:56;;;;;;;15.52;3.42;;;;;;;;;;4994052;28;20026;-54
2022/10/15 03:39:23;;;;;;;19.23;3.63;;;;;;;;;;4993958;28;20504;-56
2022/10/15 03:41:52;;;;;;;15.48;3.13;;;;;;;;;;4976353;28;20026;-57
2022/10/15 03:44:19;;;;;;;17.67;3.42;;;;;;;;;;4993702;28;20061;-56
2022/10/15 03:46:46;;;;;;;12.73;3.20;;;;;;;;;;4993932;28;20023;-56
2022/10/15 03:49:13;;;;;;;14.60;3.35;;;;;;;;;;4993760;28;20418;-52
2022/10/15 03:51:40;;;;;;;11.30;2.85;;;;;;;;;;4993750;28;20476;-56
2022/10/15 03:54:07;;;;;;;16.83;3.33;;;;;;;;;;4993795;28;20089;-55
2022/10/15 03:56:34;;;;;;;14.02;3.05;;;;;;;;;;4993910;28;20034;-57
2022/10/15 03:59:01;;;;;;;18.27;3.47;;;;;;;;;;4993626;28;20029;-56
2022/10/15 04:01:28;;;;;;;11.68;2.95;;;;;;;;;;4993600;28;20113;-57
2022/10/15 04:03:55;;;;;;;16.08;3.15;;;;;;;;;;4993231;28;20066;-56
2022/10/15 04:06:22;;;;;;;13.55;3.00;;;;;;;;;;4993412;28;20027;-57
2022/10/15 04:08:49;;;;;;;14.95;2.95;;;;;;;;;;4993551;28;20033;-56
2022/10/15 04:11:16;;;;;;;11.32;2.80;;;;;;;;;;4993431;28;20034;-56
2022/10/15 04:13:43;;;;;;;12.30;3.20;;;;;;;;;;4993366;28;20177;-56
2022/10/15 04:16:10;;;;;;;12.63;2.30;;;;;;;;;;4993340;28;20026;-55
2022/10/15 04:18:37;;;;;;;12.85;2.50;;;;;;;;;;4993429;28;20034;-56
2022/10/15 04:21:04;;;;;;;12.52;2.97;;;;;;;;;;4993053;28;20488;-56
2022/10/15 04:23:30;;;;;;;13.82;2.90;;;;;;;;;;4993355;28;20031;-56
2022/10/15 04:26:00;;;;;;;13.93;2.75;;;;;;;;;;4993051;28;20038;-57
2022/10/15 04:28:28;;;;;;;10.93;2.60;;;;;;;;;;4993172;28;20027;-57
2022/10/15 04:30:59;;;;;;;12.85;2.53;;;;;;;;;;4992910;28;20034;-56
2022/10/15 04:33:26;;;;;;;13.05;2.75;;;;;;;;;;4993152;28;20113;-56
2022/10/15 04:36:00;;;;;;;11.00;2.80;;;;;;;;;;4992989;28;20034;-56
2022/10/15 04:38:27;;;;;;;11.80;2.50;;;;;;;;;;4992177;28;20488;-53
2022/10/15 04:41:01;;;;;;;11.70;2.28;;;;;;;;;;4992995;28;20037;-56
2022/10/15 04:43:28;;;;;;;11.13;2.63;;;;;;;;;;4992825;28;20060;-56
2022/10/15 04:45:56;;;;;;;13.35;2.63;;;;;;;;;;4992635;28;20030;-54
2022/10/15 04:48:23;;;;;;;11.40;2.50;;;;;;;;;;4992848;28;20057;-56
2022/10/15 04:50:50;;;;;;;9.13;2.33;;;;;;;;;;4992852;28;20054;-55
2022/10/15 04:53:17;;;;;;;10.10;2.13;;;;;;;;;;4992669;28;20476;-56
2022/10/15 04:55:44;;;;;;;8.02;2.10;;;;;;;;;;4992700;28;20037;-57
2022/10/15 04:58:11;;;;;;;9.30;2.55;;;;;;;;;;4992718;28;20403;-56
2022/10/15 05:00:38;;;;;;;13.02;2.15;;;;;;;;;;4992756;28;20034;-55
2022/10/15 05:03:06;;;;;;;11.63;2.22;;;;;;;;;;4992799;28;20089;-57
2022/10/15 05:05:33;;;;;;;8.75;2.20;;;;;;;;;;4992458;28;20030;-55
2022/10/15 05:08:00;;;;;;;8.93;1.88;;;;;;;;;;4992464;28;20549;-56
2022/10/15 05:10:27;;;;;;;12.38;2.50;;;;;;;;;;4992637;28;20030;-55
2022/10/15 05:12:54;;;;;;;9.73;2.33;;;;;;;;;;4992654;28;20031;-54
2022/10/15 05:15:21;;;;;;;11.10;1.70;;;;;;;;;;4992499;28;20030;-53
2022/10/15 05:17:48;;;;;;;10.40;2.10;;;;;;;;;;4992515;28;20096;-56
2022/10/15 05:20:15;;;;;;;4.30;1.60;;;;;;;;;;4992277;28;20027;-56
2022/10/15 05:22:42;;;;;;;7.78;1.98;;;;;;;;;;4992318;28;20405;-56
2022/10/15 05:25:09;;;;;;;10.80;2.00;;;;;;;;;;4992407;28;20038;-55
2022/10/15 05:27:36;;;;;;;10.63;1.90;;;;;;;;;;4992347;28;20058;-56
2022/10/15 05:30:03;;;;;;;8.68;1.48;;;;;;;;;;4992511;28;20105;-57
2022/10/15 05:32:30;;;;;;;7.15;2.10;;;;;;;;;;4992452;28;20037;-56
2022/10/15 05:34:57;;;;;;;12.45;2.17;;;;;;;;;;4992056;28;20503;-53
2022/10/15 05:37:24;;;;;;;6.55;1.73;;;;;;;;;;4992325;28;20032;-56
2022/10/15 05:39:51;;;;;;;7.38;2.00;;;;;;;;;;4992255;28;20026;-56
2022/10/15 05:42:18;;;;;;;8.80;2.40;;;;;;;;;;4992241;28;20030;-50
2022/10/15 05:44:45;;;;;;;6.18;1.90;;;;;;;;;;4991822;28;20046;-51
2022/10/15 05:47:12;;;;;;;5.55;1.90;;;;;;;;;;4992123;28;20077;-53
2022/10/15 05:49:39;;;;;;;7.57;1.95;;;;;;;;;;4993559;28;20500;-54
2022/10/15 05:52:06;;;;;;;8.07;1.60;;;;;;;;;;4996124;28;20053;-53
2022/10/15 05:54:33;;;;;;;6.80;1.63;;;;;;;;;;4995752;28;20053;-54
2022/10/15 05:57:00;;;;;;;7.95;1.65;;;;;;;;;;4996084;28;20022;-50
2022/10/15 05:59:27;;;;;;;3.95;1.33;;;;;;;;;;4995820;28;20046;-53
2022/10/15 06:01:54;;;;;;;5.07;1.30;;;;;;;;;;5012234;28;20387;-55
2022/10/15 06:04:21;;;;;;;11.23;1.80;;;;;;;;;;5035016;28;20037;-56
2022/10/15 06:06:48;;;;;;;6.32;1.42;;;;;;;;;;5035050;28;20026;-56
2022/10/15 06:09:15;;;;;;;7.03;1.42;;;;;;;;;;5035253;28;20108;-52
2022/10/15 06:11:42;;;;;;;10.02;1.60;;;;;;;;;;5035108;28;20439;-52
2022/10/15 06:14:09;;;;;;;8.23;1.90;;;;;;;;;;5034994;28;20026;-49
2022/10/15 06:16:36;;;;;;;9.63;1.73;;;;;;;;;;5034474;28;20099;-51
2022/10/15 06:19:03;;;;;;;7.55;1.80;;;;;;;;;;5035022;28;20070;-55
2022/10/15 06:21:30;;;;;;;5.65;1.55;;;;;;;;;;5034777;28;20022;-49
2022/10/15 06:23:57;;;;;;;8.20;1.70;;;;;;;;;;5034501;28;20029;-50
2022/10/15 06:26:24;;;;;;;6.53;1.27;;;;;;;;;;5034757;28;20033;-52
2022/10/15 06:28:51;;;;;;;3.75;1.50;;;;;;;;;;5034757;28;20471;-54
2022/10/15 06:31:18;;;;;;;5.78;1.48;;;;;;;;;;5034596;28;20033;-54
2022/10/15 06:33:45;;;;;;;7.85;1.48;;;;;;;;;;5034786;28;20017;-52
2022/10/15 06:36:15;;;;;;;6.53;1.42;;;;;;;;;;5016837;28;20495;-54
2022/10/15 06:38:44;;;;;;;8.00;1.52;;;;;;;;;;5034646;28;20036;-56
2022/10/15 06:41:11;;;;;;;5.30;1.65;;;;;;;;;;5034641;28;20033;-53
2022/10/15 06:43:39;;;;;;;10.85;1.42;;;;;;;;;;5034408;28;20108;-55
2022/10/15 06:46:06;;;;;;;5.22;1.50;;;;;;;;;;5034381;28;20033;-52
2022/10/15 06:48:33;;;;;;;4.80;1.13;;;;;;;;;;5034466;28;20072;-53
2022/10/15 06:51:01;;;;;;;5.32;1.05;;;;;;;;;;5034402;28;20036;-54
2022/10/15 06:53:28;;;;;;;5.55;1.42;;;;;;;;;;5034430;28;20503;-55
2022/10/15 06:55:59;;;;;;;7.20;1.30;;;;;;;;;;5034324;28;20056;-54
2022/10/15 06:58:26;;;;;;;3.38;1.30;;;;;;;;;;5034408;28;20021;-54
2022/10/15 07:00:53;;;;;;;3.97;1.13;;;;;;;;;;5033190;28;20033;-56
2022/10/15 07:03:20;;;;;;;5.18;1.38;;;;;;;;;;5034198;28;20510;-52
2022/10/15 07:05:46;;;;;;;6.68;1.55;;;;;;;;;;5034058;28;20060;-56
2022/10/15 07:08:13;;;;;;;4.30;1.38;;;;;;;;;;5034200;28;20033;-57
2022/10/15 07:10:40;;;;;;;5.28;1.13;;;;;;;;;;5034151;28;20083;-56
2022/10/15 07:13:07;;;;;;;5.88;1.35;;;;;;;;;;5034005;28;20067;-56
2022/10/15 07:15:34;;;;;;;2.97;1.02;;;;;;;;;;5034005;28;20029;-57
2022/10/15 07:18:01;;;;;;;5.63;1.20;;;;;;;;;;5033998;28;20080;-55
2022/10/15 07:20:29;;;;;;;4.72;1.27;;;;;;;;;;5033961;28;20041;-55
2022/10/15 07:22:57;;;;;;;4.93;1.17;;;;;;;;;;5033928;28;20045;-55
2022/10/15 07:25:25;;;;;;;4.57;1.33;;;;;;;;;;5033622;28;20030;-55
2022/10/15 07:27:51;;;;;;;6.80;1.55;;;;;;;;;;5033761;28;20060;-56
2022/10/15 07:30:18;;;;;;;4.13;1.20;;;;;;;;;;5033802;28;20091;-55
2022/10/15 07:32:45;;;;;;;4.35;1.33;;;;;;;;;;5033742;28;20033;-56
2022/10/15 07:35:12;;;;;;;4.28;1.27;;;;;;;;;;5033521;28;20087;-57
2022/10/15 07:37:39;;;;;;;5.82;0.90;;;;;;;;;;5033541;28;20537;-57
2022/10/15 07:40:07;;;;;;;5.68;1.00;;;;;;;;;;5033605;28;20079;-57
2022/10/15 07:42:34;;;;;;;2.78;1.10;;;;;;;;;;5033555;28;20124;-57
2022/10/15 07:45:01;;;;;;;4.03;1.00;;;;;;;;;;5033131;28;20037;-57
2022/10/15 07:47:28;;;;;;;4.47;1.40;;;;;;;;;;5033407;28;20025;-57
2022/10/15 07:49:55;;;;;;;3.90;1.10;;;;;;;;;;5152793;22;20076;-64
2022/10/15 07:52:22;;;;;;;4.15;1.20;;;;;;;;;;5004358;28;20033;-64
2022/10/15 07:54:48;;;;;;;4.93;1.15;;;;;;;;;;5013563;28;20080;-64
2022/10/15 07:57:16;;;;;;;5.32;1.00;;;;;;;;;;5013163;28;20053;-63
2022/10/15 07:59:43;;;;;;;3.20;0.98;;;;;;;;;;5013505;28;20515;-63
2022/10/15 08:02:16;;;;;;;4.00;1.15;;;;;;;;;;5013312;28;20053;-64
2022/10/15 08:04:43;;;;;;;3.60;1.30;;;;;;;;;;5013306;28;20492;-63
2022/10/15 08:07:10;;;;;;;4.05;1.10;;;;;;;;;;5013262;28;20025;-63
2022/10/15 08:09:37;;;;;;;4.55;1.20;;;;;;;;;;5012918;28;20030;-64
2022/10/15 08:12:05;;;;;;;4.07;1.00;;;;;;;;;;5012818;28;20036;-63
2022/10/15 08:14:35;;;;;;;2.70;0.90;;;;;;;;;;5013045;28;20114;-62
2022/10/15 08:17:06;;;;;;;4.28;1.02;;;;;;;;;;5013066;28;20033;-63
2022/10/15 08:19:33;;;;;;;3.40;1.13;;;;;;;;;;5012979;28;20033;-63
2022/10/15 08:22:00;;;;;;;3.63;1.05;;;;;;;;;;5013039;28;20403;-63
2022/10/15 08:24:29;;;;;;;4.40;0.90;;;;;;;;;;5012957;28;20487;-63
2022/10/15 08:26:57;;;;;;;3.53;1.00;;;;;;;;;;5012757;28;20036;-63
2022/10/15 08:29:24;;;;;;;3.63;0.90;;;;;;;;;;5012892;28;20029;-63
2022/10/15 08:31:51;;;;;;;3.42;1.30;;;;;;;;;;5012954;28;20032;-63
2022/10/15 08:34:18;;;;;;;3.15;1.20;;;;;;;;;;5012666;28;20030;-63
2022/10/15 08:36:45;;;;;;;4.78;1.00;;;;;;;;;;5012765;28;20034;-64
2022/10/15 08:39:12;;;;;;;4.10;1.10;;;;;;;;;;5012622;28;20026;-63
2022/10/15 08:41:50;;;;;;;3.85;1.00;;;;;;;;;;5012698;28;20149;-63
2022/10/15 08:44:22;;;;;;;4.35;1.08;;;;;;;;;;5012518;28;20029;-63
2022/10/15 08:46:52;;;;;;;3.88;1.20;;;;;;;;;;5012666;28;20522;-63
2022/10/15 08:49:38;;;;;;;2.38;0.98;;;;;;;;;;5012179;28;20050;-63
2022/10/15 08:52:20;;;;;;;2.70;0.90;;;;;;;;;;5012610;28;20033;-63
2022/10/15 08:54:47;;;;;;;2.38;0.90;;;;;;;;;;4994854;28;20045;-63
2022/10/15 08:57:21;;;;;;;4.30;0.95;;;;;;;;;;5012416;28;20137;-63
2022/10/15 09:00:11;;;;;;;2.03;0.70;;;;;;;;;;5012137;28;20029;-63
2022/10/15 09:02:56;;;;;;;3.42;0.80;;;;;;;;;;4967935;28;20034;-63
2022/10/15 09:05:36;;;;;;;2.47;0.90;;;;;;;;;;5012318;28;20487;-63
2022/10/15 09:08:03;;;;;;;6.15;1.05;;;;;;;;;;5012235;28;20064;-63
2022/10/15 09:10:33;;;;;;;4.60;0.80;;;;;;;;;;5012367;28;20030;-63
2022/10/15 09:13:22;;;;;;;3.63;0.88;;;;;;;;;;5012508;28;20040;-63
2022/10/15 09:16:01;;;;;;;2.50;0.85;;;;;;;;;;5002293;28;20121;-63
2022/10/15 09:18:30;;;;;;;4.45;0.82;;;;;;;;;;5012115;28;20022;-63
2022/10/15 09:20:58;;;;;;;4.05;0.73;;;;;;;;;;5012290;28;20491;-63
2022/10/15 09:23:28;;;;;;;3.63;0.80;;;;;;;;;;5012241;28;20048;-63
2022/10/15 09:26:02;;;;;;;4.20;1.10;;;;;;;;;;4998353;28;20108;-63
2022/10/15 09:28:36;;;;;;;2.17;0.80;;;;;;;;;;5016229;28;20137;-63
2022/10/15 09:31:03;;;;;;;4.97;0.90;;;;;;;;;;5016288;28;20026;-63
2022/10/15 09:33:30;;;;;;;4.88;1.08;;;;;;;;;;5016265;28;20479;-63
2022/10/15 09:36:05;;;;;;;2.97;0.90;;;;;;;;;;5015978;28;20404;-63
2022/10/15 09:38:32;;;;;;;2.47;0.90;;;;;;;;;;5016013;28;20032;-63
2022/10/15 09:41:14;;;;;;;3.78;0.95;;;;;;;;;;5015959;28;20037;-63
2022/10/15 09:43:44;;;;;;;4.53;1.05;;;;;;;;;;5015893;28;20041;-63
2022/10/15 09:46:12;;;;;;;3.92;0.90;;;;;;;;;;5015809;28;20049;-63
2022/10/15 09:48:52;;;;;;;5.43;1.00;;;;;;;;;;5015721;28;20495;-63
2022/10/15 09:51:19;;;;;;;3.92;0.77;;;;;;;;;;5015816;28;20475;-63
2022/10/15 09:53:57;;;;;;;2.20;0.90;;;;;;;;;;5015931;28;20398;-63
2022/10/15 09:56:29;;;;;;;4.95;1.15;;;;;;;;;;5015912;28;20099;-63
2022/10/15 09:58:56;;;;;;;5.60;0.88;;;;;;;;;;5015684;28;20115;-63
2022/10/15 10:01:25;;;;;;;3.80;0.80;;;;;;;;;;4997947;28;20376;-63
2022/10/15 10:03:53;;;;;;;3.15;0.90;;;;;;;;;;5015759;28;20026;-63
2022/10/15 10:06:21;;;;;;;4.72;0.80;;;;;;;;;;5015545;28;20454;-63
2022/10/15 10:08:52;;;;;;;4.25;0.82;;;;;;;;;;5015598;28;20107;-63
2022/10/15 10:11:20;;;;;;;3.03;0.93;;;;;;;;;;5015563;28;20053;-64
2022/10/15 10:13:52;;;;;;;3.00;1.00;;;;;;;;;;5015510;28;20030;-64
2022/10/15 10:16:20;;;;;;;3.58;1.00;;;;;;;;;;5015531;28;20037;-64
2022/10/15 10:19:02;;;;;;;2.75;1.00;;;;;;;;;;5015546;28;20030;-64
2022/10/15 10:21:31;;;;;;;2.08;0.65;;;;;;;;;;5015492;28;20029;-64
2022/10/15 10:24:17;;;;;;;3.42;1.20;;;;;;;;;;5015455;28;20113;-64
2022/10/15 10:26:45;;;;;;;2.58;0.88;;;;;;;;;;4996974;28;20116;-64
2022/10/15 10:29:17;;;;;;;2.55;1.05;;;;;;;;;;5015475;28;20080;-64
2022/10/15 10:31:44;;;;;;;4.03;0.88;;;;;;;;;;5015409;28;20364;-64
2022/10/15 10:34:14;;;;;;;1.33;0.70;;;;;;;;;;5015332;28;20022;-64
2022/10/15 10:36:41;;;;;;;3.17;0.95;;;;;;;;;;5015359;28;20022;-64
2022/10/15 10:39:14;;;;;;;2.83;0.88;;;;;;;;;;5015161;28;20030;-65
2022/10/15 10:41:52;;;;;;;3.08;0.80;;;;;;;;;;5015342;28;20053;-65
2022/10/15 10:44:21;;;;;;;4.15;0.93;;;;;;;;;;5015217;28;20033;-64
2022/10/15 10:47:06;;;;;;;5.35;0.98;;;;;;;;;;5015285;28;20145;-65
2022/10/15 10:49:36;;;;;;;2.70;1.10;;;;;;;;;;5014792;28;20499;-64
2022/10/15 10:52:03;;;;;;;2.58;0.80;;;;;;;;;;5014835;28;20033;-64
2022/10/15 10:54:32;;;;;;;3.60;0.82;;;;;;;;;;5014744;28;20087;-64
2022/10/15 10:57:00;;;;;;;2.67;0.70;;;;;;;;;;5014851;28;20021;-65
2022/10/15 10:59:30;;;;;;;4.55;1.05;;;;;;;;;;5014766;28;20117;-65
2022/10/15 11:01:57;;;;;;;2.28;0.73;;;;;;;;;;5014768;28;20022;-64
2022/10/15 11:04:24;;;;;;;3.92;0.88;;;;;;;;;;5014664;28;20018;-64
2022/10/15 11:07:09;;;;;;;2.92;0.82;;;;;;;;;;5014897;28;20433;-65
2022/10/15 11:10:14;;;;;;;2.97;0.88;;;;;;;;;;5014576;28;20100;-65
2022/10/15 11:12:50;;;;;;;7.47;1.10;;;;;;;;;;4934930;29;20498;-64
2022/10/15 11:15:25;;;;;;;4.05;1.00;;;;;;;;;;4934958;29;20039;-64
2022/10/15 11:18:06;;;;;;;4.07;1.15;;;;;;;;;;4983132;28;20049;-65
2022/10/15 11:20:53;;;;;;;3.13;0.88;;;;;;;;;;5014670;28;20669;-64
2022/10/15 11:23:23;;;;;;;4.68;0.90;;;;;;;;;;4994988;28;20030;-65
2022/10/15 11:25:57;;;;;;;3.05;0.85;;;;;;;;;;4975243;28;20122;-64
2022/10/15 11:28:34;;;;;;;3.25;1.00;;;;;;;;;;4975414;28;20389;-64
2022/10/15 11:31:16;;;;;;;3.53;1.02;;;;;;;;;;4975194;28;20033;-64
2022/10/15 11:33:48;;;;;;;4.28;1.13;;;;;;;;;;4975132;28;20031;-64
2022/10/15 11:36:29;;;;;;;2.90;1.00;;;;;;;;;;4975133;28;20035;-64
2022/10/15 11:39:05;;;;;;;4.55;1.13;;;;;;;;;;4974929;28;20029;-64
2022/10/15 11:41:55;;;;;;;7.40;1.13;;;;;;;;;;4974954;28;20034;-64
2022/10/15 11:44:48;;;;;;;5.35;1.20;;;;;;;;;;4967113;28;20042;-64
2022/10/15 11:47:14;;;;;;;;;;;;;;;;;;4974772;28;20031;-65
2022/10/15 11:49:59;;;;;;;5.03;1.45;;;;;;;;;;4974484;28;19981;-64
2022/10/15 11:52:36;;;;;;;4.25;1.40;;;;;;;;;;4974772;28;20026;-64
2022/10/15 11:55:12;;;;;;;5.00;1.05;;;;;;;;;;4974653;28;20045;-64
2022/10/15 11:57:40;;;;;;;4.78;1.08;;;;;;;;;;4974662;28;20023;-67
2022/10/15 12:00:33;;;;;;;4.43;1.15;;;;;;;;;;4974471;28;20023;-64
2022/10/15 12:03:04;;;;;;;4.65;1.17;;;;;;;;;;4972757;28;20452;-64
2022/10/15 12:05:35;;;;;;;6.57;1.38;;;;;;;;;;4973001;28;20081;-65
2022/10/15 12:08:03;;;;;;;4.25;1.30;;;;;;;;;;4974341;28;20384;-65
2022/10/15 12:10:36;;;;;;;5.15;1.35;;;;;;;;;;4974301;28;20420;-64
2022/10/15 12:13:12;;;;;;;7.60;1.25;;;;;;;;;;4974223;28;20445;-64
2022/10/15 12:15:54;;;;;;;4.35;1.08;;;;;;;;;;4974244;28;20120;-64
2022/10/15 12:18:36;;;;;;;5.10;1.45;;;;;;;;;;4974185;28;20042;-65
2022/10/15 12:21:03;;;;;;;4.97;1.40;;;;;;;;;;4981745;28;20019;-64
2022/10/15 12:23:33;;;;;;;6.85;1.50;;;;;;;;;;4979510;28;20027;-63
2022/10/15 12:26:00;;;;;;;5.32;1.30;;;;;;;;;;4980078;28;20042;-64
2022/10/15 12:28:29;;;;;;;4.13;1.35;;;;;;;;;;4973232;28;20177;-65
2022/10/15 12:30:57;;;;;;;6.47;1.35;;;;;;;;;;4982696;28;20039;-65
2022/10/15 12:33:27;;;;;;;5.50;1.10;;;;;;;;;;4973704;28;20050;-64
2022/10/15 12:35:55;;;;;;;10.25;1.52;;;;;;;;;;4973848;28;20027;-64
2022/10/15 12:38:27;;;;;;;5.90;1.10;;;;;;;;;;4987046;28;20112;-63
2022/10/15 12:40:54;;;;;;;;;;;;;;;;;;4992199;28;20026;-64
2022/10/15 12:43:21;;;;;;;4.10;1.00;;;;;;;;;;4979253;28;19943;-63
2022/10/15 12:45:51;;;;;;;7.45;1.40;;;;;;;;;;4978831;28;20039;-64
2022/10/15 12:48:20;;;;;;;5.28;1.60;;;;;;;;;;4973159;28;20035;-63
2022/10/15 12:50:47;;;;;;;9.95;1.42;;;;;;;;;;4973586;28;20018;-63
2022/10/15 12:53:31;;;;;;;9.52;1.40;;;;;;;;;;4973620;28;20030;-63
2022/10/15 12:56:22;;;;;;;5.55;1.45;;;;;;;;;;4976178;28;20042;-64
2022/10/15 12:58:55;;;;;;;6.72;1.60;;;;;;;;;;4976447;28;20047;-63
2022/10/15 13:01:22;;;;;;;6.55;1.35;;;;;;;;;;4983554;28;20517;-64
2022/10/15 13:03:49;;;;;;;9.25;1.60;;;;;;;;;;4986463;28;20384;-64
2022/10/15 13:06:22;;;;;;;4.35;1.20;;;;;;;;;;4992650;28;20030;-64
2022/10/15 13:09:07;;;;;;;5.90;1.50;;;;;;;;;;4992709;28;20499;-65
2022/10/15 13:11:37;;;;;;;4.30;1.15;;;;;;;;;;4988854;28;20050;-65
2022/10/15 13:14:04;;;;;;;4.90;1.30;;;;;;;;;;4991514;28;20026;-64
2022/10/15 13:16:31;;;;;;;7.57;1.52;;;;;;;;;;4983197;28;20030;-64
2022/10/15 13:18:59;;;;;;;8.52;1.48;;;;;;;;;;4981249;28;20491;-65
2022/10/15 13:21:45;;;;;;;8.60;1.50;;;;;;;;;;4976789;28;20043;-67
2022/10/15 13:24:16;;;;;;;7.97;1.85;;;;;;;;;;4986666;28;20053;-69
2022/10/15 13:26:43;;;;;;;12.27;1.90;;;;;;;;;;4974352;28;20485;-62
2022/10/15 13:29:20;;;;;;;8.05;1.90;;;;;;;;;;4983011;28;20092;-66
2022/10/15 13:31:47;;;;;;;14.60;2.13;;;;;;;;;;4991303;28;20030;-67
2022/10/15 13:34:21;;;;;;;14.23;1.95;;;;;;;;;;4979277;28;20093;-68
2022/10/15 13:36:48;;;;;;;18.60;2.10;;;;;;;;;;4977673;28;20023;-66
2022/10/15 13:39:36;;;;;;;12.23;1.88;;;;;;;;;;4982784;28;20578;-67
2022/10/15 13:42:23;;;;;;;18.88;2.35;;;;;;;;;;4986242;28;20030;-67
2022/10/15 13:45:16;;;;;;;10.23;2.15;;;;;;;;;;4991829;28;20030;-62
2022/10/15 13:47:47;;;;;;;18.70;2.10;;;;;;;;;;4992052;28;20484;-65
2022/10/15 13:50:18;;;;;;;21.75;2.70;;;;;;;;;;4991240;28;20057;-68
2022/10/15 13:52:51;;;;;;;14.20;2.70;;;;;;;;;;4989794;28;20112;-68
2022/10/15 13:55:24;;;;;;;20.35;2.40;;;;;;;;;;4971844;28;20054;-65
2022/10/15 13:57:55;;;;;;;16.10;2.78;;;;;;;;;;4972604;28;20026;-65
2022/10/15 14:00:25;;;;;;;23.75;2.70;;;;;;;;;;4972633;28;20109;-67
2022/10/15 14:03:08;;;;;;;15.93;2.65;;;;;;;;;;4972060;28;20027;-67
2022/10/15 14:05:35;;;;;;;18.33;3.05;;;;;;;;;;4979677;28;20484;-66
2022/10/15 14:08:02;;;;;;;14.23;2.53;;;;;;;;;;4988922;28;20072;-67
2022/10/15 14:10:29;;;;;;;19.60;3.35;;;;;;;;;;4992886;28;20366;-67
2022/10/15 14:12:56;;;;;;;12.95;3.13;;;;;;;;;;4988861;28;20023;-65
2022/10/15 14:15:42;;;;;;;20.27;3.63;;;;;;;;;;4983382;28;20031;-67
2022/10/15 14:18:09;;;;;;;17.10;3.17;;;;;;;;;;4984511;28;20081;-67
2022/10/15 14:20:36;;;;;;;14.85;3.70;;;;;;;;;;4984972;28;20034;-65
2022/10/15 14:23:03;;;;;;;17.77;3.33;;;;;;;;;;4991776;28;20492;-67
2022/10/15 14:25:30;;;;;;;11.52;3.13;;;;;;;;;;4994819;28;20492;-67
2022/10/15 14:27:57;;;;;;;17.20;3.60;;;;;;;;;;4988752;28;20464;-66
2022/10/15 14:30:30;;;;;;;20.92;4.30;;;;;;;;;;4990786;28;20035;-65
2022/10/15 14:32:57;;;;;;;17.70;3.97;;;;;;;;;;4983224;28;20022;-65
2022/10/15 14:35:25;;;;;;;21.45;4.05;;;;;;;;;;4989118;28;20033;-71
2022/10/15 14:38:02;;;;;;;23.77;3.97;;;;;;;;;;4989746;28;20023;-64
2022/10/15 14:40:30;;;;;;;23.38;4.10;;;;;;;;;;4990157;28;20066;-65
2022/10/15 14:43:01;;;;;;;16.02;3.97;;;;;;;;;;4983886;28;20026;-66
2022/10/15 14:45:29;;;;;;;17.67;4.28;;;;;;;;;;4984033;28;20424;-64
2022/10/15 14:48:01;;;;;;;20.38;4.22;;;;;;;;;;4983511;28;20058;-66
2022/10/15 14:50:33;;;;;;;21.08;4.35;;;;;;;;;;4983350;28;20453;-65
2022/10/15 14:53:05;;;;;;;28.17;4.30;;;;;;;;;;4988375;28;20369;-65
2022/10/15 14:55:37;;;;;;;21.38;4.32;;;;;;;;;;4978854;28;20073;-63
2022/10/15 14:58:11;;;;;;;28.25;4.72;;;;;;;;;;4974586;28;20435;-66